»·PEaware :: AAL552 KLAS-KLAX

AAL552 :: KLAS-KLAX

FLIGHT INFORMATION

Flight Status: Arrived
Operator:
American Airlines
More flights by this operator :: More flights under this callsign
Pilot: David D. (17313)
Aircraft: BOEING 737-800
(B738)
More flights by this aircraft type
Origin: KLAS McCarran Intl
United States
Destination: KLAX Los Angeles Intl
United States
More flights between these airports :: More routes between these airports
Route: BOACH8 RIKII SHTNR ANJLL4
File this flight plan on PilotEdge
Remarks: PBN / A1B1C1D1S1S2 NAV / RNVD1E2A1 DAT / V REG / N737DC SEL / DDFG OPR / AAL RMK / SIMBRIEF
Altitude:
(Current/Filed)
28,000ft
Speed:
(Current/Filed)
446kts
Departed: 25-Jul-18 10:40 AM
Arrived: 25-Jul-18 11:22 AM
Distance/Time
Traveled:
205nm/0:42
Distance/Time
To Go:
Arrived

Flight Plot

Page will automatically refresh every two minutes.

Flight plan parsing failed; only flown route is shown


Map Options




Map Legend


Flown Route
Filed Route
Departure Airport
Arrival Airport
Navaid (VOR, NDB)
Fix

Horizontal Profiles

Position Reports

Time Latitude Longitude Heading Altitude Ground
Speed
25-Jul-18 09:57 36.084997 -115.154944 55 2190ft 0kts
25-Jul-18 09:58 36.084997 -115.154944 55 2191ft 0kts
25-Jul-18 09:59 36.084997 -115.154944 55 2191ft 0kts
25-Jul-18 10:00 36.084997 -115.154944 55 2191ft 0kts
25-Jul-18 10:01 36.084997 -115.154944 55 2191ft 0kts
25-Jul-18 10:02 36.084997 -115.154944 55 2191ft 0kts
25-Jul-18 10:03 36.084997 -115.154944 55 2191ft 0kts
25-Jul-18 10:04 36.084997 -115.154944 55 2191ft 0kts
25-Jul-18 10:05 36.084997 -115.154944 55 2191ft 0kts
25-Jul-18 10:06 36.084997 -115.154944 55 2191ft 0kts
25-Jul-18 10:07 36.084997 -115.154944 55 2191ft 0kts
25-Jul-18 10:08 36.084997 -115.154944 55 2191ft 0kts
25-Jul-18 10:09 36.084997 -115.154944 55 2191ft 0kts
25-Jul-18 10:10 36.084997 -115.154944 55 2191ft 0kts
25-Jul-18 10:18 36.084997 -115.154944 55 2190ft 0kts
25-Jul-18 10:19 36.084997 -115.154944 55 2190ft 0kts
25-Jul-18 10:20 36.084997 -115.154944 55 2190ft 0kts
25-Jul-18 10:21 36.084997 -115.154944 55 2190ft 0kts
25-Jul-18 10:22 36.084997 -115.154944 55 2190ft 0kts
25-Jul-18 10:23 36.084997 -115.154944 55 2190ft 0kts
25-Jul-18 10:24 36.084997 -115.154944 55 2190ft 0kts
25-Jul-18 10:25 36.084997 -115.154944 55 2190ft 0kts
25-Jul-18 10:26 36.084997 -115.154944 55 2190ft 0kts
25-Jul-18 10:27 36.084997 -115.154944 55 2190ft 0kts
25-Jul-18 10:28 36.084946 -115.155035 56 2190ft 2kts
25-Jul-18 10:29 36.084749 -115.155735 119 2190ft 2kts
25-Jul-18 10:30 36.085059 -115.155970 153 2190ft 0kts
25-Jul-18 10:31 36.085059 -115.155970 153 2190ft 0kts
25-Jul-18 10:32 36.085059 -115.155970 153 2190ft 0kts
25-Jul-18 10:33 36.084619 -115.155709 154 2190ft 13kts
25-Jul-18 10:34 36.081640 -115.156442 271 2190ft 19kts
25-Jul-18 10:35 36.086737 -115.158131 22 2190ft 23kts
25-Jul-18 10:36 36.093679 -115.154180 24 2190ft 32kts
25-Jul-18 10:37 36.097969 -115.152398 291 2190ft 0kts
25-Jul-18 10:38 36.097970 -115.152399 291 2190ft 0kts
25-Jul-18 10:39 36.097970 -115.152400 291 2190ft 0kts
25-Jul-18 10:40 36.097971 -115.152403 291 2190ft 0kts
25-Jul-18 10:41 36.093481 -115.156543 205 2191ft 105kts
25-Jul-18 10:42 36.037249 -115.188566 207 4909ft 279kts
25-Jul-18 10:43 35.987713 -115.262268 242 6993ft 283kts
25-Jul-18 10:44 35.924335 -115.307133 185 8252ft 286kts
25-Jul-18 10:45 35.841303 -115.314030 176 12072ft 324kts
25-Jul-18 10:46 35.745474 -115.302226 175 15614ft 359kts
25-Jul-18 10:47 35.642878 -115.294301 184 18488ft 378kts
25-Jul-18 10:48 35.536153 -115.300466 185 19106ft 385kts
25-Jul-18 10:49 35.438118 -115.350042 212 21516ft 391kts
25-Jul-18 10:50 35.342960 -115.419658 211 24176ft 405kts
25-Jul-18 10:51 35.243794 -115.491379 211 26372ft 419kts
25-Jul-18 10:52 35.142461 -115.564821 211 27999ft 424kts
25-Jul-18 10:53 35.056712 -115.664244 226 28114ft 425kts
25-Jul-18 10:54 34.974619 -115.769043 225 28127ft 428kts
25-Jul-18 10:55 34.892667 -115.873330 225 28128ft 426kts
25-Jul-18 10:56 34.823449 -115.961302 225 28136ft 427kts
25-Jul-18 10:57 34.741066 -116.066056 225 28142ft 427kts
25-Jul-18 10:58 34.658901 -116.170316 225 28142ft 428kts
25-Jul-18 10:59 34.576451 -116.274859 225 28164ft 428kts
25-Jul-18 11:00 34.493834 -116.379467 225 28206ft 429kts
25-Jul-18 11:01 34.413391 -116.486685 237 28198ft 432kts
25-Jul-18 11:02 34.360982 -116.612860 242 27867ft 412kts
25-Jul-18 11:03 34.310330 -116.736435 243 25778ft 404kts
25-Jul-18 11:04 34.262414 -116.856114 243 23731ft 388kts
25-Jul-18 11:05 34.215761 -116.971440 243 21665ft 376kts
25-Jul-18 11:06 34.182151 -117.089029 251 19657ft 365kts
25-Jul-18 11:07 34.151400 -117.203547 250 17798ft 354kts
25-Jul-18 11:08 34.120622 -117.314745 249 16022ft 346kts
25-Jul-18 11:09 34.091273 -117.424963 251 14313ft 341kts
25-Jul-18 11:10 34.062613 -117.532073 244 12646ft 333kts
25-Jul-18 11:11 34.024861 -117.632569 245 10951ft 326kts
25-Jul-18 11:17 33.961749 -118.144479 263 3857ft 204kts
25-Jul-18 11:18 33.954930 -118.211004 264 2912ft 181kts
25-Jul-18 11:19 33.949661 -118.262588 263 2130ft 146kts
25-Jul-18 11:20 33.944782 -118.310256 262 1350ft 144kts
25-Jul-18 11:21 33.939930 -118.357679 261 583ft 141kts
25-Jul-18 11:22 33.936249 -118.394465 259 136ft 102kts
25-Jul-18 11:23 33.935576 -118.405421 288 136ft 0kts
25-Jul-18 11:24 33.935863 -118.407681 268 136ft 17kts
25-Jul-18 11:25 33.938177 -118.409299 358 136ft 0kts
25-Jul-18 11:26 33.939118 -118.408098 5 136ft 7kts
25-Jul-18 11:27 33.940266 -118.407548 81 136ft 1kts
25-Jul-18 11:28 33.940280 -118.407437 81 136ft 0kts
25-Jul-18 11:29 33.940280 -118.407437 81 136ft 0kts
25-Jul-18 11:30 33.940280 -118.407437 81 136ft 0kts

Navigation Log

Ident Type
Flight plan parsing failed, navigation log unavailable